sensor_id;sensor_type;location;lat;lon;timestamp;temperature;humidity
18888;DHT22;9576;47.792;9.628;2023-03-02T00:00:55;2.00;99.90
18888;DHT22;9576;47.792;9.628;2023-03-02T00:04:01;2.10;99.90
18888;DHT22;9576;47.792;9.628;2023-03-02T00:07:08;2.20;99.90
18888;DHT22;9576;47.792;9.628;2023-03-02T00:10:11;2.20;99.90
18888;DHT22;9576;47.792;9.628;2023-03-02T00:13:13;2.20;99.90
18888;DHT22;9576;47.792;9.628;2023-03-02T00:16:15;2.20;99.90
18888;DHT22;9576;47.792;9.628;2023-03-02T00:19:19;2.30;99.90
18888;DHT22;9576;47.792;9.628;2023-03-02T00:22:21;2.40;99.90
18888;DHT22;9576;47.792;9.628;2023-03-02T00:25:22;2.40;99.90
18888;DHT22;9576;47.792;9.628;2023-03-02T00:28:24;2.40;99.90
18888;DHT22;9576;47.792;9.628;2023-03-02T00:31:26;2.40;99.90
18888;DHT22;9576;47.792;9.628;2023-03-02T00:34:30;2.40;99.90
18888;DHT22;9576;47.792;9.628;2023-03-02T00:37:34;2.40;99.90
18888;DHT22;9576;47.792;9.628;2023-03-02T00:40:36;2.40;99.90
18888;DHT22;9576;47.792;9.628;2023-03-02T00:43:38;2.50;99.90
18888;DHT22;9576;47.792;9.628;2023-03-02T00:46:40;2.50;99.90
18888;DHT22;9576;47.792;9.628;2023-03-02T00:49:43;2.50;99.90
18888;DHT22;9576;47.792;9.628;2023-03-02T00:52:48;2.50;99.90
18888;DHT22;9576;47.792;9.628;2023-03-02T00:55:53;2.50;99.90
18888;DHT22;9576;47.792;9.628;2023-03-02T00:58:55;2.60;99.90
18888;DHT22;9576;47.792;9.628;2023-03-02T01:01:59;2.50;99.90
18888;DHT22;9576;47.792;9.628;2023-03-02T01:05:02;2.60;99.90
18888;DHT22;9576;47.792;9.628;2023-03-02T01:08:04;2.60;99.90
18888;DHT22;9576;47.792;9.628;2023-03-02T01:11:12;2.50;99.90
18888;DHT22;9576;47.792;9.628;2023-03-02T01:14:14;2.50;99.90
18888;DHT22;9576;47.792;9.628;2023-03-02T01:17:16;2.50;99.90
18888;DHT22;9576;47.792;9.628;2023-03-02T01:20:19;2.40;99.90
18888;DHT22;9576;47.792;9.628;2023-03-02T01:23:21;2.30;99.90
18888;DHT22;9576;47.792;9.628;2023-03-02T01:26:23;2.30;99.90
18888;DHT22;9576;47.792;9.628;2023-03-02T01:29:25;2.30;99.90
18888;DHT22;9576;47.792;9.628;2023-03-02T01:32:27;2.30;99.90
18888;DHT22;9576;47.792;9.628;2023-03-02T01:35:30;2.30;99.90
18888;DHT22;9576;47.792;9.628;2023-03-02T01:38:32;2.20;99.90
18888;DHT22;9576;47.792;9.628;2023-03-02T01:41:34;2.20;99.90
18888;DHT22;9576;47.792;9.628;2023-03-02T01:44:42;2.20;99.90
18888;DHT22;9576;47.792;9.628;2023-03-02T01:47:44;2.20;99.90
18888;DHT22;9576;47.792;9.628;2023-03-02T01:50:47;2.20;99.90
18888;DHT22;9576;47.792;9.628;2023-03-02T01:53:51;2.20;99.90
18888;DHT22;9576;47.792;9.628;2023-03-02T01:56:57;2.20;99.90
18888;DHT22;9576;47.792;9.628;2023-03-02T02:00:02;2.20;99.90
18888;DHT22;9576;47.792;9.628;2023-03-02T02:03:10;2.20;99.90
18888;DHT22;9576;47.792;9.628;2023-03-02T02:06:20;2.20;99.90
18888;DHT22;9576;47.792;9.628;2023-03-02T02:09:24;2.20;99.90
18888;DHT22;9576;47.792;9.628;2023-03-02T02:12:27;2.20;99.90
18888;DHT22;9576;47.792;9.628;2023-03-02T02:15:29;2.10;99.90
18888;DHT22;9576;47.792;9.628;2023-03-02T02:18:31;2.20;99.90
18888;DHT22;9576;47.792;9.628;2023-03-02T02:21:35;2.10;99.90
18888;DHT22;9576;47.792;9.628;2023-03-02T02:24:40;2.20;99.90
18888;DHT22;9576;47.792;9.628;2023-03-02T02:27:45;2.10;99.90
18888;DHT22;9576;47.792;9.628;2023-03-02T02:31:01;2.20;99.90
18888;DHT22;9576;47.792;9.628;2023-03-02T02:34:10;2.20;99.90
18888;DHT22;9576;47.792;9.628;2023-03-02T02:37:16;2.20;99.90
18888;DHT22;9576;47.792;9.628;2023-03-02T02:40:35;2.20;99.90
18888;DHT22;9576;47.792;9.628;2023-03-02T02:43:39;2.20;99.90
18888;DHT22;9576;47.792;9.628;2023-03-02T02:46:41;2.30;99.90
18888;DHT22;9576;47.792;9.628;2023-03-02T02:49:45;2.20;99.90
18888;DHT22;9576;47.792;9.628;2023-03-02T02:52:50;2.20;99.90
18888;DHT22;9576;47.792;9.628;2023-03-02T02:55:55;2.10;99.90
18888;DHT22;9576;47.792;9.628;2023-03-02T02:59:03;2.10;99.90
18888;DHT22;9576;47.792;9.628;2023-03-02T03:02:11;2.10;99.90
18888;DHT22;9576;47.792;9.628;2023-03-02T03:05:16;2.10;99.90
18888;DHT22;9576;47.792;9.628;2023-03-02T03:08:50;2.20;99.90
18888;DHT22;9576;47.792;9.628;2023-03-02T03:11:55;2.20;99.90
18888;DHT22;9576;47.792;9.628;2023-03-02T03:14:58;2.20;99.90
18888;DHT22;9576;47.792;9.628;2023-03-02T03:18:00;2.20;99.90
18888;DHT22;9576;47.792;9.628;2023-03-02T03:21:02;2.30;99.90
18888;DHT22;9576;47.792;9.628;2023-03-02T03:24:05;2.30;99.90
18888;DHT22;9576;47.792;9.628;2023-03-02T03:27:09;2.30;99.90
18888;DHT22;9576;47.792;9.628;2023-03-02T03:30:14;2.30;99.90
18888;DHT22;9576;47.792;9.628;2023-03-02T03:33:16;2.20;99.90
18888;DHT22;9576;47.792;9.628;2023-03-02T03:36:18;2.20;99.90
18888;DHT22;9576;47.792;9.628;2023-03-02T03:39:20;2.20;99.90
18888;DHT22;9576;47.792;9.628;2023-03-02T03:42:22;2.20;99.90
18888;DHT22;9576;47.792;9.628;2023-03-02T03:45:25;2.20;99.90
18888;DHT22;9576;47.792;9.628;2023-03-02T03:48:27;2.20;99.90
18888;DHT22;9576;47.792;9.628;2023-03-02T03:51:29;2.20;99.90
18888;DHT22;9576;47.792;9.628;2023-03-02T03:54:34;2.20;99.90
18888;DHT22;9576;47.792;9.628;2023-03-02T03:57:36;2.20;99.90
18888;DHT22;9576;47.792;9.628;2023-03-02T04:00:40;2.20;99.90
18888;DHT22;9576;47.792;9.628;2023-03-02T04:03:41;2.20;99.90
18888;DHT22;9576;47.792;9.628;2023-03-02T04:06:43;2.10;99.90
18888;DHT22;9576;47.792;9.628;2023-03-02T04:09:45;2.20;99.90
18888;DHT22;9576;47.792;9.628;2023-03-02T04:12:47;2.10;99.90
18888;DHT22;9576;47.792;9.628;2023-03-02T04:15:51;2.10;99.90
18888;DHT22;9576;47.792;9.628;2023-03-02T04:18:53;2.10;99.90
18888;DHT22;9576;47.792;9.628;2023-03-02T04:21:55;2.10;99.90
18888;DHT22;9576;47.792;9.628;2023-03-02T04:24:58;2.10;99.90
18888;DHT22;9576;47.792;9.628;2023-03-02T04:27:59;2.10;99.90
18888;DHT22;9576;47.792;9.628;2023-03-02T04:31:03;2.00;99.90
18888;DHT22;9576;47.792;9.628;2023-03-02T04:34:06;2.00;99.90
18888;DHT22;9576;47.792;9.628;2023-03-02T04:37:08;2.00;99.90
18888;DHT22;9576;47.792;9.628;2023-03-02T04:40:11;2.00;99.90
18888;DHT22;9576;47.792;9.628;2023-03-02T04:43:14;2.00;99.90
18888;DHT22;9576;47.792;9.628;2023-03-02T04:46:19;2.00;99.90
18888;DHT22;9576;47.792;9.628;2023-03-02T04:49:22;2.00;99.90
18888;DHT22;9576;47.792;9.628;2023-03-02T04:52:24;2.00;99.90
18888;DHT22;9576;47.792;9.628;2023-03-02T04:55:26;2.00;99.90
18888;DHT22;9576;47.792;9.628;2023-03-02T04:58:28;2.00;99.90
18888;DHT22;9576;47.792;9.628;2023-03-02T05:01:32;2.10;99.90
18888;DHT22;9576;47.792;9.628;2023-03-02T05:04:34;2.20;99.90
18888;DHT22;9576;47.792;9.628;2023-03-02T05:07:36;2.30;99.90
18888;DHT22;9576;47.792;9.628;2023-03-02T05:10:38;2.30;99.90
18888;DHT22;9576;47.792;9.628;2023-03-02T05:13:39;2.40;99.90
18888;DHT22;9576;47.792;9.628;2023-03-02T05:16:43;2.30;99.90
18888;DHT22;9576;47.792;9.628;2023-03-02T05:19:45;2.30;99.90
18888;DHT22;9576;47.792;9.628;2023-03-02T05:22:47;2.20;99.90
18888;DHT22;9576;47.792;9.628;2023-03-02T05:25:49;2.20;99.90
18888;DHT22;9576;47.792;9.628;2023-03-02T05:28:51;2.10;99.90
18888;DHT22;9576;47.792;9.628;2023-03-02T05:31:54;2.10;99.90
18888;DHT22;9576;47.792;9.628;2023-03-02T05:34:56;2.00;99.90
18888;DHT22;9576;47.792;9.628;2023-03-02T05:37:58;2.00;99.90
18888;DHT22;9576;47.792;9.628;2023-03-02T05:41:00;2.10;99.90
18888;DHT22;9576;47.792;9.628;2023-03-02T05:44:03;2.00;99.90
18888;DHT22;9576;47.792;9.628;2023-03-02T05:47:06;2.00;99.90
18888;DHT22;9576;47.792;9.628;2023-03-02T05:50:09;1.90;99.90
18888;DHT22;9576;47.792;9.628;2023-03-02T05:53:11;1.90;99.90
18888;DHT22;9576;47.792;9.628;2023-03-02T05:56:13;1.90;99.90
18888;DHT22;9576;47.792;9.628;2023-03-02T05:59:15;1.90;99.90
18888;DHT22;9576;47.792;9.628;2023-03-02T06:02:18;1.90;99.90
18888;DHT22;9576;47.792;9.628;2023-03-02T06:05:20;1.90;99.90
18888;DHT22;9576;47.792;9.628;2023-03-02T06:08:24;1.90;99.90
18888;DHT22;9576;47.792;9.628;2023-03-02T06:11:26;2.00;99.90
18888;DHT22;9576;47.792;9.628;2023-03-02T06:14:29;2.00;99.90
18888;DHT22;9576;47.792;9.628;2023-03-02T06:17:33;2.00;99.90
18888;DHT22;9576;47.792;9.628;2023-03-02T06:20:35;2.00;99.90
18888;DHT22;9576;47.792;9.628;2023-03-02T06:23:37;2.10;99.90
18888;DHT22;9576;47.792;9.628;2023-03-02T06:26:39;2.00;99.90
18888;DHT22;9576;47.792;9.628;2023-03-02T06:29:41;2.00;99.90
18888;DHT22;9576;47.792;9.628;2023-03-02T06:32:44;2.10;99.90
18888;DHT22;9576;47.792;9.628;2023-03-02T06:35:46;2.10;99.90
18888;DHT22;9576;47.792;9.628;2023-03-02T06:38:49;2.10;99.90
18888;DHT22;9576;47.792;9.628;2023-03-02T06:41:51;2.20;99.90
18888;DHT22;9576;47.792;9.628;2023-03-02T06:44:53;2.20;99.90
18888;DHT22;9576;47.792;9.628;2023-03-02T06:47:57;2.20;99.90
18888;DHT22;9576;47.792;9.628;2023-03-02T06:50:59;2.20;99.90
18888;DHT22;9576;47.792;9.628;2023-03-02T06:54:01;2.30;99.90
18888;DHT22;9576;47.792;9.628;2023-03-02T06:57:03;2.30;99.90
18888;DHT22;9576;47.792;9.628;2023-03-02T07:00:06;2.30;99.90
18888;DHT22;9576;47.792;9.628;2023-03-02T07:03:12;2.40;99.90
18888;DHT22;9576;47.792;9.628;2023-03-02T07:06:14;2.50;99.90
18888;DHT22;9576;47.792;9.628;2023-03-02T07:09:16;2.50;99.90
18888;DHT22;9576;47.792;9.628;2023-03-02T07:12:17;2.50;99.90
18888;DHT22;9576;47.792;9.628;2023-03-02T07:15:20;2.50;99.90
18888;DHT22;9576;47.792;9.628;2023-03-02T07:18:23;2.40;99.90
18888;DHT22;9576;47.792;9.628;2023-03-02T07:21:25;2.50;99.90
18888;DHT22;9576;47.792;9.628;2023-03-02T07:24:27;2.40;99.90
18888;DHT22;9576;47.792;9.628;2023-03-02T07:27:30;2.50;99.90
18888;DHT22;9576;47.792;9.628;2023-03-02T07:30:32;2.60;99.90
18888;DHT22;9576;47.792;9.628;2023-03-02T07:33:36;2.60;99.90
18888;DHT22;9576;47.792;9.628;2023-03-02T07:36:39;2.60;99.90
18888;DHT22;9576;47.792;9.628;2023-03-02T07:39:41;2.70;99.90
18888;DHT22;9576;47.792;9.628;2023-03-02T07:42:43;2.60;99.90
18888;DHT22;9576;47.792;9.628;2023-03-02T07:45:45;2.60;99.90
18888;DHT22;9576;47.792;9.628;2023-03-02T07:48:48;2.50;99.90
18888;DHT22;9576;47.792;9.628;2023-03-02T07:51:50;2.60;99.90
18888;DHT22;9576;47.792;9.628;2023-03-02T07:54:52;2.60;99.90
18888;DHT22;9576;47.792;9.628;2023-03-02T07:57:54;2.60;99.90
18888;DHT22;9576;47.792;9.628;2023-03-02T08:00:56;2.70;99.90
18888;DHT22;9576;47.792;9.628;2023-03-02T08:03:59;2.70;99.90
18888;DHT22;9576;47.792;9.628;2023-03-02T08:07:01;2.80;99.90
18888;DHT22;9576;47.792;9.628;2023-03-02T08:10:04;2.80;99.90
18888;DHT22;9576;47.792;9.628;2023-03-02T08:13:06;2.80;99.90
18888;DHT22;9576;47.792;9.628;2023-03-02T08:16:09;2.80;99.90
18888;DHT22;9576;47.792;9.628;2023-03-02T08:19:13;2.80;99.90
18888;DHT22;9576;47.792;9.628;2023-03-02T08:22:15;2.90;99.90
18888;DHT22;9576;47.792;9.628;2023-03-02T08:25:17;2.80;99.90
18888;DHT22;9576;47.792;9.628;2023-03-02T08:28:20;2.80;99.90
18888;DHT22;9576;47.792;9.628;2023-03-02T08:31:22;2.70;99.90
18888;DHT22;9576;47.792;9.628;2023-03-02T08:34:25;2.80;99.90
18888;DHT22;9576;47.792;9.628;2023-03-02T08:37:27;2.80;99.90
18888;DHT22;9576;47.792;9.628;2023-03-02T08:40:29;2.90;99.90
18888;DHT22;9576;47.792;9.628;2023-03-02T08:43:31;2.80;99.90
18888;DHT22;9576;47.792;9.628;2023-03-02T08:46:33;2.80;99.90
18888;DHT22;9576;47.792;9.628;2023-03-02T08:49:36;2.70;99.90
18888;DHT22;9576;47.792;9.628;2023-03-02T08:52:38;2.70;99.90
18888;DHT22;9576;47.792;9.628;2023-03-02T08:55:40;2.70;99.90
18888;DHT22;9576;47.792;9.628;2023-03-02T08:58:42;2.70;99.90
18888;DHT22;9576;47.792;9.628;2023-03-02T09:01:44;2.70;99.90
18888;DHT22;9576;47.792;9.628;2023-03-02T09:04:47;2.70;99.90
18888;DHT22;9576;47.792;9.628;2023-03-02T09:07:49;2.80;99.90
18888;DHT22;9576;47.792;9.628;2023-03-02T09:10:52;2.70;99.90
18888;DHT22;9576;47.792;9.628;2023-03-02T09:13:54;2.70;99.90
18888;DHT22;9576;47.792;9.628;2023-03-02T09:16:56;2.70;99.90
18888;DHT22;9576;47.792;9.628;2023-03-02T09:19:59;2.70;99.90
18888;DHT22;9576;47.792;9.628;2023-03-02T09:23:01;2.70;99.90
18888;DHT22;9576;47.792;9.628;2023-03-02T09:26:03;2.60;99.90
18888;DHT22;9576;47.792;9.628;2023-03-02T09:29:06;2.60;99.90
18888;DHT22;9576;47.792;9.628;2023-03-02T09:32:08;2.60;99.90
18888;DHT22;9576;47.792;9.628;2023-03-02T09:35:11;2.60;99.90
18888;DHT22;9576;47.792;9.628;2023-03-02T09:38:13;2.60;99.90
18888;DHT22;9576;47.792;9.628;2023-03-02T09:41:37;2.70;99.90
18888;DHT22;9576;47.792;9.628;2023-03-02T09:45:01;2.70;99.90
18888;DHT22;9576;47.792;9.628;2023-03-02T09:48:13;2.80;99.90
18888;DHT22;9576;47.792;9.628;2023-03-02T09:51:30;2.70;99.90
18888;DHT22;9576;47.792;9.628;2023-03-02T09:54:33;2.70;99.90
18888;DHT22;9576;47.792;9.628;2023-03-02T09:57:38;2.70;99.90
18888;DHT22;9576;47.792;9.628;2023-03-02T10:00:41;2.90;99.90
18888;DHT22;9576;47.792;9.628;2023-03-02T10:03:49;2.90;99.90
18888;DHT22;9576;47.792;9.628;2023-03-02T10:06:57;3.00;99.90
18888;DHT22;9576;47.792;9.628;2023-03-02T10:10:08;2.90;99.90
18888;DHT22;9576;47.792;9.628;2023-03-02T10:13:21;2.90;99.90
18888;DHT22;9576;47.792;9.628;2023-03-02T10:16:29;2.90;99.90
18888;DHT22;9576;47.792;9.628;2023-03-02T10:19:38;3.00;99.90
18888;DHT22;9576;47.792;9.628;2023-03-02T10:22:46;3.00;99.90
18888;DHT22;9576;47.792;9.628;2023-03-02T10:25:51;3.00;99.90
18888;DHT22;9576;47.792;9.628;2023-03-02T10:29:00;3.10;99.90
18888;DHT22;9576;47.792;9.628;2023-03-02T10:32:15;3.10;99.90
18888;DHT22;9576;47.792;9.628;2023-03-02T10:35:20;3.10;99.90
18888;DHT22;9576;47.792;9.628;2023-03-02T10:38:26;3.20;99.90
18888;DHT22;9576;47.792;9.628;2023-03-02T10:41:31;3.20;99.90
18888;DHT22;9576;47.792;9.628;2023-03-02T10:44:38;3.30;99.90
18888;DHT22;9576;47.792;9.628;2023-03-02T10:47:40;3.40;99.90
18888;DHT22;9576;47.792;9.628;2023-03-02T10:50:42;3.40;99.90
18888;DHT22;9576;47.792;9.628;2023-03-02T10:53:46;3.40;99.90
18888;DHT22;9576;47.792;9.628;2023-03-02T10:56:50;3.50;99.90
18888;DHT22;9576;47.792;9.628;2023-03-02T10:59:58;3.60;99.90
18888;DHT22;9576;47.792;9.628;2023-03-02T11:03:03;3.70;99.90
18888;DHT22;9576;47.792;9.628;2023-03-02T11:06:14;3.70;99.90
18888;DHT22;9576;47.792;9.628;2023-03-02T11:09:19;3.70;99.90
18888;DHT22;9576;47.792;9.628;2023-03-02T11:12:21;3.70;99.90
18888;DHT22;9576;47.792;9.628;2023-03-02T11:15:26;3.70;99.90
18888;DHT22;9576;47.792;9.628;2023-03-02T11:18:31;3.70;99.90
18888;DHT22;9576;47.792;9.628;2023-03-02T11:21:37;3.80;99.90
18888;DHT22;9576;47.792;9.628;2023-03-02T11:24:47;3.80;99.90
18888;DHT22;9576;47.792;9.628;2023-03-02T11:27:57;3.90;99.90
18888;DHT22;9576;47.792;9.628;2023-03-02T11:31:00;3.90;99.90
18888;DHT22;9576;47.792;9.628;2023-03-02T11:34:09;3.90;99.90
18888;DHT22;9576;47.792;9.628;2023-03-02T11:37:16;4.00;99.90
18888;DHT22;9576;47.792;9.628;2023-03-02T11:40:23;4.10;99.90
18888;DHT22;9576;47.792;9.628;2023-03-02T11:43:27;4.10;99.90
18888;DHT22;9576;47.792;9.628;2023-03-02T11:46:29;3.90;99.90
18888;DHT22;9576;47.792;9.628;2023-03-02T11:49:38;3.90;99.90
18888;DHT22;9576;47.792;9.628;2023-03-02T11:52:43;3.90;99.90
18888;DHT22;9576;47.792;9.628;2023-03-02T11:55:48;4.00;99.90
18888;DHT22;9576;47.792;9.628;2023-03-02T11:58:53;4.00;99.90
18888;DHT22;9576;47.792;9.628;2023-03-02T12:01:58;3.90;99.90
18888;DHT22;9576;47.792;9.628;2023-03-02T12:05:02;3.80;99.90
18888;DHT22;9576;47.792;9.628;2023-03-02T12:08:07;3.90;99.90
18888;DHT22;9576;47.792;9.628;2023-03-02T12:11:34;3.80;99.90
18888;DHT22;9576;47.792;9.628;2023-03-02T12:14:39;3.80;99.90
18888;DHT22;9576;47.792;9.628;2023-03-02T12:17:41;3.80;99.90
18888;DHT22;9576;47.792;9.628;2023-03-02T12:20:43;3.90;99.90
18888;DHT22;9576;47.792;9.628;2023-03-02T12:23:57;4.00;99.90
18888;DHT22;9576;47.792;9.628;2023-03-02T12:27:02;4.00;99.90
18888;DHT22;9576;47.792;9.628;2023-03-02T12:30:16;4.00;99.90
18888;DHT22;9576;47.792;9.628;2023-03-02T12:33:24;3.90;99.90
18888;DHT22;9576;47.792;9.628;2023-03-02T12:36:30;3.80;99.90
18888;DHT22;9576;47.792;9.628;2023-03-02T12:39:56;3.80;99.90
18888;DHT22;9576;47.792;9.628;2023-03-02T12:43:29;3.80;99.90
18888;DHT22;9576;47.792;9.628;2023-03-02T12:46:33;3.80;99.90
18888;DHT22;9576;47.792;9.628;2023-03-02T12:49:41;3.80;99.90
18888;DHT22;9576;47.792;9.628;2023-03-02T12:52:56;3.80;99.90
18888;DHT22;9576;47.792;9.628;2023-03-02T12:55:58;3.90;99.90
18888;DHT22;9576;47.792;9.628;2023-03-02T12:59:01;4.10;99.90
18888;DHT22;9576;47.792;9.628;2023-03-02T13:02:08;4.00;99.90
18888;DHT22;9576;47.792;9.628;2023-03-02T13:05:17;4.10;99.90
18888;DHT22;9576;47.792;9.628;2023-03-02T13:08:21;4.00;99.90
18888;DHT22;9576;47.792;9.628;2023-03-02T13:11:27;3.90;99.90
18888;DHT22;9576;47.792;9.628;2023-03-02T13:14:32;3.80;99.90
18888;DHT22;9576;47.792;9.628;2023-03-02T13:17:34;3.80;99.90
18888;DHT22;9576;47.792;9.628;2023-03-02T13:20:37;3.80;99.90
18888;DHT22;9576;47.792;9.628;2023-03-02T13:23:45;3.80;99.90
18888;DHT22;9576;47.792;9.628;2023-03-02T13:26:54;3.70;99.90
18888;DHT22;9576;47.792;9.628;2023-03-02T13:30:09;3.70;99.90
18888;DHT22;9576;47.792;9.628;2023-03-02T13:33:19;3.80;99.90
18888;DHT22;9576;47.792;9.628;2023-03-02T13:36:25;4.00;99.90
18888;DHT22;9576;47.792;9.628;2023-03-02T13:39:29;4.00;99.90
18888;DHT22;9576;47.792;9.628;2023-03-02T13:42:35;4.00;99.90
18888;DHT22;9576;47.792;9.628;2023-03-02T13:45:38;4.00;99.90
18888;DHT22;9576;47.792;9.628;2023-03-02T13:48:40;4.10;99.90
18888;DHT22;9576;47.792;9.628;2023-03-02T13:51:44;4.10;99.90
18888;DHT22;9576;47.792;9.628;2023-03-02T13:54:46;4.00;99.90
18888;DHT22;9576;47.792;9.628;2023-03-02T13:57:50;4.10;99.90
18888;DHT22;9576;47.792;9.628;2023-03-02T14:00:54;4.10;99.90
18888;DHT22;9576;47.792;9.628;2023-03-02T14:03:56;4.10;99.90
18888;DHT22;9576;47.792;9.628;2023-03-02T14:06:59;4.10;99.90
18888;DHT22;9576;47.792;9.628;2023-03-02T14:10:02;4.10;99.90
18888;DHT22;9576;47.792;9.628;2023-03-02T14:13:06;4.00;99.90
18888;DHT22;9576;47.792;9.628;2023-03-02T14:16:12;3.90;99.90
18888;DHT22;9576;47.792;9.628;2023-03-02T14:19:15;3.80;99.90
18888;DHT22;9576;47.792;9.628;2023-03-02T14:22:18;3.80;99.90
18888;DHT22;9576;47.792;9.628;2023-03-02T14:25:20;3.80;99.90
18888;DHT22;9576;47.792;9.628;2023-03-02T14:28:26;3.80;99.90
18888;DHT22;9576;47.792;9.628;2023-03-02T14:31:29;3.80;99.90
18888;DHT22;9576;47.792;9.628;2023-03-02T14:34:32;3.80;99.90
18888;DHT22;9576;47.792;9.628;2023-03-02T14:37:34;3.80;99.90
18888;DHT22;9576;47.792;9.628;2023-03-02T14:40:37;3.80;99.90
18888;DHT22;9576;47.792;9.628;2023-03-02T14:43:39;3.80;99.90
18888;DHT22;9576;47.792;9.628;2023-03-02T14:46:42;3.70;99.90
18888;DHT22;9576;47.792;9.628;2023-03-02T14:49:44;3.70;99.90
18888;DHT22;9576;47.792;9.628;2023-03-02T14:52:49;3.70;99.90
18888;DHT22;9576;47.792;9.628;2023-03-02T14:55:52;3.60;99.90
18888;DHT22;9576;47.792;9.628;2023-03-02T14:58:54;3.50;99.90
18888;DHT22;9576;47.792;9.628;2023-03-02T15:01:57;3.50;99.90
18888;DHT22;9576;47.792;9.628;2023-03-02T15:04:59;3.50;99.90
18888;DHT22;9576;47.792;9.628;2023-03-02T15:08:01;3.50;99.90
18888;DHT22;9576;47.792;9.628;2023-03-02T15:11:04;3.40;99.90
18888;DHT22;9576;47.792;9.628;2023-03-02T15:14:06;3.40;99.90
18888;DHT22;9576;47.792;9.628;2023-03-02T15:17:09;3.30;99.90
18888;DHT22;9576;47.792;9.628;2023-03-02T15:20:14;3.30;99.90
18888;DHT22;9576;47.792;9.628;2023-03-02T15:23:16;3.30;99.90
18888;DHT22;9576;47.792;9.628;2023-03-02T15:26:18;3.30;99.90
18888;DHT22;9576;47.792;9.628;2023-03-02T15:29:20;3.40;99.90
18888;DHT22;9576;47.792;9.628;2023-03-02T15:32:23;3.30;99.90
18888;DHT22;9576;47.792;9.628;2023-03-02T15:35:26;3.40;99.90
18888;DHT22;9576;47.792;9.628;2023-03-02T15:38:28;3.50;99.90
18888;DHT22;9576;47.792;9.628;2023-03-02T15:41:30;3.60;99.90
18888;DHT22;9576;47.792;9.628;2023-03-02T15:44:32;3.60;99.90
18888;DHT22;9576;47.792;9.628;2023-03-02T15:47:35;3.60;99.90
18888;DHT22;9576;47.792;9.628;2023-03-02T15:50:38;3.60;99.90
18888;DHT22;9576;47.792;9.628;2023-03-02T15:53:39;3.70;99.90
18888;DHT22;9576;47.792;9.628;2023-03-02T15:56:41;3.80;99.90
18888;DHT22;9576;47.792;9.628;2023-03-02T15:59:44;3.80;99.90
18888;DHT22;9576;47.792;9.628;2023-03-02T16:02:48;3.80;99.90
18888;DHT22;9576;47.792;9.628;2023-03-02T16:05:50;3.80;99.90
18888;DHT22;9576;47.792;9.628;2023-03-02T16:08:52;3.80;99.90
18888;DHT22;9576;47.792;9.628;2023-03-02T16:11:56;3.80;99.90
18888;DHT22;9576;47.792;9.628;2023-03-02T16:14:58;3.80;99.90
18888;DHT22;9576;47.792;9.628;2023-03-02T16:18:01;3.80;99.90
18888;DHT22;9576;47.792;9.628;2023-03-02T16:21:03;3.80;99.90
18888;DHT22;9576;47.792;9.628;2023-03-02T16:24:06;3.70;99.90
18888;DHT22;9576;47.792;9.628;2023-03-02T16:27:08;3.80;99.90
18888;DHT22;9576;47.792;9.628;2023-03-02T16:30:11;3.70;99.90
18888;DHT22;9576;47.792;9.628;2023-03-02T16:33:16;3.70;99.90
18888;DHT22;9576;47.792;9.628;2023-03-02T16:36:19;3.70;99.90
18888;DHT22;9576;47.792;9.628;2023-03-02T16:39:21;3.60;99.90
18888;DHT22;9576;47.792;9.628;2023-03-02T16:42:23;3.50;99.90
18888;DHT22;9576;47.792;9.628;2023-03-02T16:45:25;3.50;99.90
18888;DHT22;9576;47.792;9.628;2023-03-02T16:48:29;3.40;99.90
18888;DHT22;9576;47.792;9.628;2023-03-02T16:51:31;3.40;99.90
18888;DHT22;9576;47.792;9.628;2023-03-02T16:54:33;3.30;99.90
18888;DHT22;9576;47.792;9.628;2023-03-02T16:57:35;3.30;99.90
18888;DHT22;9576;47.792;9.628;2023-03-02T17:00:37;3.40;99.90
18888;DHT22;9576;47.792;9.628;2023-03-02T17:03:41;3.40;99.90
18888;DHT22;9576;47.792;9.628;2023-03-02T17:06:45;3.40;99.90
18888;DHT22;9576;47.792;9.628;2023-03-02T17:09:47;3.30;99.90
18888;DHT22;9576;47.792;9.628;2023-03-02T17:12:49;3.40;99.90
18888;DHT22;9576;47.792;9.628;2023-03-02T17:15:51;3.40;99.90
18888;DHT22;9576;47.792;9.628;2023-03-02T17:18:54;3.50;99.90
18888;DHT22;9576;47.792;9.628;2023-03-02T17:21:56;3.30;99.90
18888;DHT22;9576;47.792;9.628;2023-03-02T17:24:58;3.30;99.90
18888;DHT22;9576;47.792;9.628;2023-03-02T17:28:00;3.20;99.90
18888;DHT22;9576;47.792;9.628;2023-03-02T17:31:03;3.20;99.90
18888;DHT22;9576;47.792;9.628;2023-03-02T17:34:06;3.20;99.90
18888;DHT22;9576;47.792;9.628;2023-03-02T17:37:08;3.20;99.90
18888;DHT22;9576;47.792;9.628;2023-03-02T17:40:12;3.30;99.90
18888;DHT22;9576;47.792;9.628;2023-03-02T17:43:14;3.30;99.90
18888;DHT22;9576;47.792;9.628;2023-03-02T17:46:18;3.30;99.90
18888;DHT22;9576;47.792;9.628;2023-03-02T17:49:21;3.20;99.90
18888;DHT22;9576;47.792;9.628;2023-03-02T17:52:23;3.30;99.90
18888;DHT22;9576;47.792;9.628;2023-03-02T17:55:25;3.30;99.90
18888;DHT22;9576;47.792;9.628;2023-03-02T17:58:27;3.40;99.90
18888;DHT22;9576;47.792;9.628;2023-03-02T18:01:31;3.40;99.90
18888;DHT22;9576;47.792;9.628;2023-03-02T18:04:34;3.40;99.90
18888;DHT22;9576;47.792;9.628;2023-03-02T18:07:36;3.30;99.90
18888;DHT22;9576;47.792;9.628;2023-03-02T18:10:38;3.30;99.90
18888;DHT22;9576;47.792;9.628;2023-03-02T18:13:40;3.40;99.90
18888;DHT22;9576;47.792;9.628;2023-03-02T18:16:42;3.20;99.90
18888;DHT22;9576;47.792;9.628;2023-03-02T18:19:46;3.30;99.90
18888;DHT22;9576;47.792;9.628;2023-03-02T18:22:48;3.30;99.90
18888;DHT22;9576;47.792;9.628;2023-03-02T18:25:50;3.20;99.90
18888;DHT22;9576;47.792;9.628;2023-03-02T18:28:52;3.20;99.90
18888;DHT22;9576;47.792;9.628;2023-03-02T18:31:53;3.30;99.90
18888;DHT22;9576;47.792;9.628;2023-03-02T18:34:57;3.10;99.90
18888;DHT22;9576;47.792;9.628;2023-03-02T18:37:59;2.90;99.90
18888;DHT22;9576;47.792;9.628;2023-03-02T18:41:02;2.90;99.90
18888;DHT22;9576;47.792;9.628;2023-03-02T18:44:04;2.90;99.90
18888;DHT22;9576;47.792;9.628;2023-03-02T18:47:08;2.90;99.90
18888;DHT22;9576;47.792;9.628;2023-03-02T18:50:12;2.80;99.90
18888;DHT22;9576;47.792;9.628;2023-03-02T18:53:14;2.80;99.90
18888;DHT22;9576;47.792;9.628;2023-03-02T18:56:17;2.80;99.90
18888;DHT22;9576;47.792;9.628;2023-03-02T18:59:19;2.80;99.90
18888;DHT22;9576;47.792;9.628;2023-03-02T19:02:21;2.80;99.90
18888;DHT22;9576;47.792;9.628;2023-03-02T19:05:24;2.70;99.90
18888;DHT22;9576;47.792;9.628;2023-03-02T19:08:29;2.80;99.90
18888;DHT22;9576;47.792;9.628;2023-03-02T19:11:31;2.80;99.90
18888;DHT22;9576;47.792;9.628;2023-03-02T19:14:33;2.80;99.90
18888;DHT22;9576;47.792;9.628;2023-03-02T19:17:35;2.80;99.90
18888;DHT22;9576;47.792;9.628;2023-03-02T19:20:39;2.80;99.90
18888;DHT22;9576;47.792;9.628;2023-03-02T19:23:41;2.90;99.90
18888;DHT22;9576;47.792;9.628;2023-03-02T19:26:43;2.90;99.90
18888;DHT22;9576;47.792;9.628;2023-03-02T19:29:45;2.80;99.90
18888;DHT22;9576;47.792;9.628;2023-03-02T19:32:47;2.80;99.90
18888;DHT22;9576;47.792;9.628;2023-03-02T19:35:54;2.90;99.90
18888;DHT22;9576;47.792;9.628;2023-03-02T19:38:56;2.80;99.90
18888;DHT22;9576;47.792;9.628;2023-03-02T19:41:58;2.80;99.90
18888;DHT22;9576;47.792;9.628;2023-03-02T19:45:00;2.80;99.90
18888;DHT22;9576;47.792;9.628;2023-03-02T19:48:03;2.90;99.90
18888;DHT22;9576;47.792;9.628;2023-03-02T19:51:07;2.90;99.90
18888;DHT22;9576;47.792;9.628;2023-03-02T19:54:10;2.90;99.90
18888;DHT22;9576;47.792;9.628;2023-03-02T19:57:12;2.80;99.90
18888;DHT22;9576;47.792;9.628;2023-03-02T20:00:15;2.80;99.90